createdAt,value
2022-11-25T00:01:29.463Z,44.83
2022-11-25T00:04:00.417Z,45.60
2022-11-25T00:06:29.816Z,46.17
2022-11-25T00:08:59.969Z,44.53
2022-11-25T00:11:28.681Z,46.17
2022-11-25T00:13:57.892Z,46.87
2022-11-25T00:16:27.453Z,45.70
2022-11-25T00:18:58.404Z,43.90
2022-11-25T00:21:28.084Z,44.67
2022-11-25T00:23:57.803Z,47.50
2022-11-25T00:26:27.865Z,47.37
2022-11-25T00:28:57.594Z,48.47
2022-11-25T00:31:27.689Z,46.83
2022-11-25T00:33:56.136Z,47.30
2022-11-25T00:36:28.227Z,52.20
2022-11-25T00:38:57.244Z,54.13
2022-11-25T00:41:45.705Z,55.13
2022-11-25T00:44:33.714Z,57.77
2022-11-25T00:47:02.213Z,57.00
2022-11-25T00:49:30.302Z,55.47
2022-11-25T00:51:59.805Z,59.50
2022-11-25T00:54:28.171Z,65.63
2022-11-25T00:56:56.669Z,64.70
2022-11-25T00:59:24.805Z,62.80
2022-11-25T01:01:53.177Z,67.67
2022-11-25T01:04:21.323Z,69.27
2022-11-25T01:06:49.303Z,68.83
2022-11-25T01:09:18.696Z,72.43
2022-11-25T01:11:46.698Z,67.13
2022-11-25T01:14:14.700Z,77.03
2022-11-25T01:16:42.817Z,74.80
2022-11-25T01:19:12.596Z,76.10
2022-11-25T01:21:40.995Z,77.80
2022-11-25T01:24:09.782Z,83.23
2022-11-25T01:26:39.115Z,79.47
2022-11-25T01:29:12.871Z,79.80
2022-11-25T01:31:41.141Z,86.03
2022-11-25T01:34:13.326Z,82.63
2022-11-25T01:36:41.563Z,77.33
2022-11-25T01:39:09.866Z,84.17
2022-11-25T01:41:39.208Z,92.13
2022-11-25T01:44:10.655Z,88.60
2022-11-25T01:46:58.247Z,97.50
2022-11-25T01:49:31.706Z,96.27
2022-11-25T01:52:04.282Z,103.37
2022-11-25T01:54:36.714Z,93.53
2022-11-25T01:57:11.445Z,96.70
2022-11-25T01:59:44.419Z,100.27
2022-11-25T02:02:13.139Z,93.97
2022-11-25T02:04:42.718Z,95.67
2022-11-25T02:07:16.331Z,92.87
2022-11-25T02:09:46.790Z,90.57
2022-11-25T02:12:18.927Z,90.30
2022-11-25T02:14:49.646Z,90.67
2022-11-25T02:17:17.913Z,92.63
2022-11-25T02:19:57.825Z,94.50
2022-11-25T02:22:34.424Z,95.07
2022-11-25T02:25:11.225Z,96.43
2022-11-25T02:27:39.265Z,95.67
2022-11-25T02:30:08.552Z,99.93
2022-11-25T02:32:36.723Z,96.13
2022-11-25T02:35:27.353Z,99.77
2022-11-25T02:38:00.056Z,100.20
2022-11-25T02:40:30.875Z,100.90
2022-11-25T02:43:01.327Z,94.07
2022-11-25T02:45:38.173Z,101.13
2022-11-25T02:48:06.649Z,109.67
2022-11-25T02:50:34.647Z,114.93
2022-11-25T02:53:02.711Z,116.67
2022-11-25T02:55:32.122Z,120.83
2022-11-25T02:58:00.183Z,120.07
2022-11-25T03:00:28.361Z,118.80
2022-11-25T03:02:56.837Z,118.43
2022-11-25T03:05:26.140Z,107.63
2022-11-25T03:07:54.681Z,103.83
2022-11-25T03:10:23.159Z,106.90
2022-11-25T03:12:52.600Z,103.20
2022-11-25T03:15:21.260Z,97.77
2022-11-25T03:17:49.259Z,97.57
2022-11-25T03:20:17.401Z,88.73
2022-11-25T03:22:45.826Z,99.30
2022-11-25T03:25:14.923Z,99.57
2022-11-25T03:27:43.256Z,98.40
2022-11-25T03:30:18.371Z,105.80
2022-11-25T03:32:46.660Z,100.47
2022-11-25T03:35:15.611Z,100.97
2022-11-25T03:37:44.535Z,98.13
2022-11-25T03:40:15.472Z,105.07
2022-11-25T03:42:44.099Z,107.83
2022-11-25T03:45:15.848Z,107.03
2022-11-25T03:47:44.617Z,103.90
2022-11-25T03:50:14.357Z,110.13
2022-11-25T03:52:42.401Z,105.30
2022-11-25T03:55:12.941Z,109.27
2022-11-25T03:57:41.005Z,113.47
2022-11-25T04:00:10.689Z,111.80
2022-11-25T04:02:40.151Z,111.47
2022-11-25T04:05:08.969Z,111.70
2022-11-25T04:07:37.104Z,109.07
2022-11-25T04:10:05.717Z,108.23
2022-11-25T04:12:48.683Z,109.63
2022-11-25T04:15:17.635Z,111.53
2022-11-25T04:17:47.025Z,110.13
2022-11-25T04:20:15.974Z,105.43
2022-11-25T04:22:44.176Z,108.03
2022-11-25T04:25:12.833Z,106.87
2022-11-25T04:27:40.837Z,106.10
2022-11-25T04:30:10.096Z,112.47
2022-11-25T04:32:38.580Z,102.87
2022-11-25T04:35:11.266Z,100.83
2022-11-25T04:37:39.267Z,100.03
2022-11-25T04:40:09.012Z,103.10
2022-11-25T04:42:39.513Z,105.33
2022-11-25T04:45:25.431Z,103.03
2022-11-25T04:47:53.452Z,111.47
2022-11-25T04:50:25.036Z,103.57
2022-11-25T04:52:53.008Z,117.63
2022-11-25T04:55:22.044Z,114.87
2022-11-25T04:57:50.027Z,114.47
2022-11-25T05:00:18.150Z,122.97
2022-11-25T05:02:46.251Z,119.23
2022-11-25T05:05:14.403Z,117.43
2022-11-25T05:07:43.802Z,119.77
2022-11-25T05:10:11.891Z,118.07
2022-11-25T05:12:40.312Z,121.73
2022-11-25T05:15:09.796Z,120.50
2022-11-25T05:17:40.624Z,117.40
2022-11-25T05:20:09.783Z,117.33
2022-11-25T05:22:38.038Z,116.90
2022-11-25T05:25:08.059Z,117.70
2022-11-25T05:27:36.184Z,117.13
2022-11-25T05:30:04.559Z,115.47
2022-11-25T05:32:32.693Z,117.53
2022-11-25T05:35:00.707Z,122.90
2022-11-25T05:37:28.712Z,120.47
2022-11-25T05:39:56.709Z,121.90
2022-11-25T05:42:26.366Z,118.60
2022-11-25T05:44:54.343Z,131.77
2022-11-25T05:47:22.334Z,124.13
2022-11-25T05:49:50.331Z,132.40
2022-11-25T05:52:18.370Z,130.30
2022-11-25T05:54:48.014Z,132.00
2022-11-25T05:57:16.232Z,141.20
2022-11-25T05:59:47.941Z,133.33
2022-11-25T06:02:16.020Z,135.93
2022-11-25T06:04:44.109Z,138.33
2022-11-25T06:07:12.152Z,128.53
2022-11-25T06:09:40.195Z,140.20
2022-11-25T06:12:08.831Z,132.73
2022-11-25T06:14:36.986Z,129.80
2022-11-25T06:17:06.551Z,130.93
2022-11-25T06:19:34.564Z,124.17
2022-11-25T06:22:02.636Z,124.50
2022-11-25T06:24:31.293Z,119.03
2022-11-25T06:27:00.653Z,123.93
2022-11-25T06:29:28.755Z,117.10
2022-11-25T06:31:56.708Z,116.53
2022-11-25T06:34:26.322Z,122.00
2022-11-25T06:36:54.650Z,118.63
2022-11-25T06:39:22.691Z,121.93
2022-11-25T06:41:50.712Z,122.27
2022-11-25T06:44:18.939Z,111.53
2022-11-25T06:46:46.986Z,109.33
2022-11-25T06:49:15.511Z,118.33
2022-11-25T06:51:44.946Z,112.63
2022-11-25T06:54:12.985Z,119.13
2022-11-25T06:56:40.986Z,116.03
2022-11-25T06:59:10.389Z,116.57
2022-11-25T07:01:38.554Z,116.60
2022-11-25T07:04:07.281Z,113.20
2022-11-25T07:06:36.618Z,123.63
2022-11-25T07:09:09.135Z,127.73
2022-11-25T07:11:38.889Z,124.53
2022-11-25T07:14:12.622Z,117.43
2022-11-25T07:16:43.859Z,126.17
2022-11-25T07:19:13.623Z,126.73
2022-11-25T07:21:43.327Z,115.30
2022-11-25T07:24:14.380Z,130.50
2022-11-25T07:26:43.884Z,120.83
2022-11-25T07:29:50.018Z,123.60
2022-11-25T07:32:10.441Z,121.63
2022-11-25T07:34:38.912Z,120.53
2022-11-25T07:37:07.151Z,120.47
2022-11-25T07:39:37.053Z,123.77
2022-11-25T07:42:05.948Z,125.77
2022-11-25T07:44:34.279Z,122.67
2022-11-25T07:47:02.323Z,136.00
2022-11-25T07:49:30.318Z,130.37
2022-11-25T07:52:02.235Z,128.70
2022-11-25T07:54:30.962Z,127.40
2022-11-25T07:57:00.370Z,125.77
2022-11-25T07:59:28.792Z,131.47
2022-11-25T08:01:57.604Z,133.00
2022-11-25T08:04:25.896Z,133.37
2022-11-25T08:06:54.569Z,130.83
2022-11-25T08:09:25.179Z,129.97
2022-11-25T08:11:54.113Z,131.70
2022-11-25T08:14:23.513Z,135.83
2022-11-25T08:16:51.483Z,135.57
2022-11-25T08:19:19.541Z,133.97
2022-11-25T08:21:49.175Z,133.43
2022-11-25T08:24:19.252Z,133.10
2022-11-25T08:26:51.323Z,128.27
2022-11-25T08:29:21.032Z,133.47
2022-11-25T08:31:51.152Z,125.57
2022-11-25T08:34:21.808Z,134.67
2022-11-25T08:36:50.234Z,127.63
2022-11-25T08:42:07.563Z,121.50
2022-11-25T08:44:35.981Z,128.70
2022-11-25T08:47:06.073Z,121.83
2022-11-25T08:49:41.393Z,121.73
2022-11-25T08:52:10.342Z,125.40
2022-11-25T08:54:38.496Z,128.33
2022-11-25T08:57:06.474Z,130.67
2022-11-25T08:59:34.584Z,133.53
2022-11-25T09:02:03.265Z,135.40
2022-11-25T09:04:32.735Z,129.57
2022-11-25T09:07:01.082Z,137.17
2022-11-25T09:09:29.328Z,127.43
2022-11-25T09:11:57.565Z,128.40
2022-11-25T09:14:25.664Z,132.67
2022-11-25T09:16:54.273Z,131.43
2022-11-25T09:19:22.304Z,129.80
2022-11-25T09:21:51.685Z,128.80
2022-11-25T09:24:19.727Z,121.70
2022-11-25T09:26:49.318Z,124.70
2022-11-25T09:29:17.571Z,122.57
2022-11-25T09:31:52.997Z,124.30
2022-11-25T09:34:22.652Z,126.83
2022-11-25T09:36:55.021Z,120.13
2022-11-25T09:39:28.075Z,122.77
2022-11-25T09:42:25.914Z,121.50
2022-11-25T09:45:25.193Z,124.23
2022-11-25T09:48:02.096Z,123.90
2022-11-25T09:50:44.117Z,125.63
2022-11-25T09:53:26.056Z,130.03
2022-11-25T09:56:01.641Z,138.53
2022-11-25T09:58:35.391Z,130.23
2022-11-25T10:01:07.911Z,127.53
2022-11-25T10:03:41.247Z,129.00
2022-11-25T10:06:16.076Z,134.53
2022-11-25T10:08:49.123Z,137.87
2022-11-25T10:11:31.732Z,143.63
2022-11-25T10:14:04.573Z,145.60
2022-11-25T10:16:36.932Z,158.67
2022-11-25T10:19:16.924Z,142.20
2022-11-25T10:21:46.397Z,144.87
2022-11-25T10:24:18.056Z,139.13
2022-11-25T10:26:50.028Z,133.33
2022-11-25T10:29:28.043Z,143.60
2022-11-25T10:32:08.861Z,128.67
2022-11-25T10:34:40.422Z,140.67
2022-11-25T10:37:15.031Z,137.83
2022-11-25T10:39:46.460Z,141.23
2022-11-25T10:42:19.598Z,134.87
2022-11-25T10:44:48.514Z,141.40
2022-11-25T10:47:33.017Z,135.47
2022-11-25T10:50:12.237Z,127.63
2022-11-25T10:52:47.832Z,132.27
2022-11-25T10:55:19.138Z,130.53
2022-11-25T10:57:49.579Z,131.60
2022-11-25T11:00:30.522Z,131.83
2022-11-25T11:03:00.941Z,127.90
2022-11-25T11:05:30.521Z,135.27
2022-11-25T11:08:24.471Z,137.70
2022-11-25T11:11:15.752Z,131.23
2022-11-25T11:13:44.281Z,134.30
2022-11-25T11:16:39.019Z,134.53
2022-11-25T11:19:23.272Z,132.80
2022-11-25T11:21:52.142Z,136.10
2022-11-25T11:24:29.853Z,135.80
2022-11-25T11:27:07.727Z,129.60
2022-11-25T11:29:36.089Z,145.40
2022-11-25T11:32:06.399Z,130.87
2022-11-25T11:34:52.496Z,133.50
2022-11-25T11:37:37.538Z,130.13
2022-11-25T11:40:25.384Z,134.40
2022-11-25T11:43:17.877Z,126.43
2022-11-25T11:45:56.134Z,120.10
2022-11-25T11:48:36.557Z,119.87
2022-11-25T11:51:18.252Z,134.03
2022-11-25T11:53:55.194Z,130.00
2022-11-25T11:56:36.364Z,126.97
2022-11-25T11:59:35.607Z,126.40
2022-11-25T12:02:18.737Z,119.90
2022-11-25T12:04:53.452Z,113.90
2022-11-25T12:07:31.414Z,115.67
2022-11-25T12:10:06.240Z,116.47
2022-11-25T12:12:38.289Z,112.17
2022-11-25T12:15:18.907Z,111.83
2022-11-25T12:17:52.685Z,109.67
2022-11-25T12:20:32.495Z,108.00
2022-11-25T12:23:05.351Z,105.87
2022-11-25T12:25:37.184Z,105.83
2022-11-25T12:28:12.195Z,111.77
2022-11-25T12:30:52.386Z,103.63
2022-11-25T12:33:27.052Z,104.97
2022-11-25T12:36:02.996Z,101.17
2022-11-25T12:38:38.692Z,98.07
2022-11-25T12:41:17.524Z,93.37
2022-11-25T12:43:50.228Z,95.30
2022-11-25T12:46:27.078Z,87.03
2022-11-25T12:48:58.378Z,90.77
2022-11-25T12:52:01.727Z,85.13
2022-11-25T12:54:44.653Z,82.03
2022-11-25T12:57:49.179Z,79.50
2022-11-25T13:03:43.497Z,84.20
2022-11-25T13:06:34.684Z,79.70
2022-11-25T13:09:11.996Z,79.30
2022-11-25T13:12:02.269Z,76.93
2022-11-25T13:14:48.326Z,79.23
2022-11-25T13:17:18.176Z,78.40
2022-11-25T13:19:46.466Z,75.00
2022-11-25T13:22:29.698Z,76.37
2022-11-25T13:24:59.024Z,74.37
2022-11-25T13:27:35.959Z,75.67
2022-11-25T13:30:07.577Z,78.43
2022-11-25T13:32:42.164Z,69.63
2022-11-25T13:35:38.604Z,74.93
2022-11-25T13:38:39.223Z,78.97
2022-11-25T13:41:26.227Z,81.07
2022-11-25T13:44:02.180Z,82.30
2022-11-25T13:46:39.987Z,83.73
2022-11-25T13:49:23.312Z,84.70
2022-11-25T13:51:52.920Z,81.33
2022-11-25T13:54:27.982Z,89.43
2022-11-25T13:57:02.645Z,89.07
2022-11-25T13:59:37.882Z,94.83
2022-11-25T14:02:30.458Z,90.53
2022-11-25T14:05:06.173Z,102.23
2022-11-25T14:07:44.852Z,89.23
2022-11-25T14:10:27.637Z,100.07
2022-11-25T14:13:19.792Z,96.83
2022-11-25T14:16:12.835Z,95.63
2022-11-25T14:19:35.145Z,104.40
2022-11-25T14:22:10.816Z,105.83
2022-11-25T14:24:42.576Z,105.57
2022-11-25T14:27:17.839Z,101.33
2022-11-25T14:29:50.274Z,104.53
2022-11-25T14:32:24.079Z,106.87
2022-11-25T14:35:01.095Z,106.17
2022-11-25T14:37:36.037Z,108.67
2022-11-25T14:40:11.090Z,114.30
2022-11-25T14:42:46.817Z,114.63
2022-11-25T14:45:23.254Z,120.10
2022-11-25T14:47:51.359Z,118.77
2022-11-25T14:50:34.812Z,115.20
2022-11-25T14:53:07.786Z,113.27
2022-11-25T14:55:36.832Z,113.90
2022-11-25T14:58:06.797Z,107.07
2022-11-25T15:00:34.871Z,110.37
2022-11-25T15:03:06.537Z,110.27
2022-11-25T15:05:36.761Z,113.60
2022-11-25T15:08:11.171Z,113.90
2022-11-25T15:10:48.004Z,111.07
2022-11-25T15:13:31.368Z,117.97
2022-11-25T15:16:06.811Z,118.07
2022-11-25T15:18:35.914Z,114.00
2022-11-25T15:21:04.816Z,113.17
2022-11-25T15:23:37.347Z,131.87
2022-11-25T15:26:16.184Z,129.47
2022-11-25T15:28:47.013Z,127.13
2022-11-25T15:31:20.352Z,128.30
2022-11-25T15:33:54.547Z,131.63
2022-11-25T15:36:23.755Z,143.70
2022-11-25T15:38:52.094Z,148.53
2022-11-25T15:41:27.224Z,152.43
2022-11-25T15:44:00.050Z,147.60
2022-11-25T15:46:29.050Z,157.80
2022-11-25T15:49:00.062Z,179.70
2022-11-25T15:51:42.152Z,196.03
2022-11-25T15:54:19.656Z,195.10
2022-11-25T15:56:51.449Z,185.00
2022-11-25T15:59:47.144Z,182.97
2022-11-25T16:02:39.232Z,185.07
2022-11-25T16:05:20.130Z,188.70
2022-11-25T16:08:00.311Z,221.63
2022-11-25T16:10:31.623Z,192.10
2022-11-25T16:13:34.610Z,191.67
2022-11-25T16:16:25.202Z,195.50
2022-11-25T16:19:21.528Z,199.83
2022-11-25T16:22:01.577Z,178.17
2022-11-25T16:24:36.792Z,171.93
2022-11-25T16:27:08.197Z,177.70
2022-11-25T16:29:39.164Z,188.10
2022-11-25T16:32:15.964Z,171.70
2022-11-25T16:34:44.773Z,179.70
2022-11-25T16:37:13.034Z,171.07
2022-11-25T16:39:41.509Z,186.80
2022-11-25T16:42:20.236Z,195.47
2022-11-25T16:44:50.658Z,193.43
2022-11-25T16:47:21.486Z,207.50
2022-11-25T16:49:49.580Z,230.53
2022-11-25T16:52:19.365Z,200.33
2022-11-25T16:54:50.171Z,198.43
2022-11-25T16:57:21.823Z,206.43
2022-11-25T16:59:58.822Z,190.40
2022-11-25T17:02:28.710Z,192.60
2022-11-25T17:04:58.541Z,192.17
2022-11-25T17:07:33.909Z,192.10
2022-11-25T17:10:02.692Z,183.63
2022-11-25T17:12:34.207Z,171.53
2022-11-25T17:15:04.774Z,204.00
2022-11-25T17:17:35.338Z,185.63
2022-11-25T17:20:03.425Z,183.93
2022-11-25T17:22:36.213Z,165.17
2022-11-25T17:25:08.805Z,158.27
2022-11-25T17:27:37.324Z,158.03
2022-11-25T17:30:07.407Z,146.57
2022-11-25T17:32:37.351Z,153.00
2022-11-25T17:35:15.716Z,141.10
2022-11-25T17:37:43.799Z,155.23
2022-11-25T17:40:13.370Z,152.93
2022-11-25T17:42:42.783Z,149.30
2022-11-25T17:45:14.143Z,151.07
2022-11-25T17:47:43.599Z,143.67
2022-11-25T17:50:18.375Z,154.37
2022-11-25T17:52:46.502Z,163.33
2022-11-25T17:55:17.074Z,159.40
2022-11-25T17:57:47.279Z,166.13
2022-11-25T18:00:17.296Z,163.97
2022-11-25T18:02:46.886Z,168.97
2022-11-25T18:05:16.696Z,160.30
2022-11-25T18:07:45.393Z,149.20
2022-11-25T18:10:15.033Z,146.27
2022-11-25T18:12:44.424Z,140.47
2022-11-25T18:15:16.890Z,142.93
2022-11-25T18:17:47.041Z,132.27
2022-11-25T18:20:21.265Z,124.93
2022-11-25T18:22:50.815Z,144.97
2022-11-25T18:25:21.437Z,150.90
2022-11-25T18:27:50.146Z,139.27
2022-11-25T18:30:20.568Z,138.50
2022-11-25T18:32:50.241Z,133.27
2022-11-25T18:35:20.462Z,134.03
2022-11-25T18:37:49.064Z,147.30
2022-11-25T18:40:18.211Z,137.03
2022-11-25T18:42:49.305Z,149.17
2022-11-25T18:45:23.520Z,149.77
2022-11-25T18:47:52.893Z,149.50
2022-11-25T18:50:22.550Z,145.37
2022-11-25T18:52:51.079Z,162.47
2022-11-25T18:55:21.437Z,160.30
2022-11-25T18:57:53.375Z,148.00
2022-11-25T19:00:32.748Z,148.33
2022-11-25T19:03:04.895Z,172.57
2022-11-25T19:05:34.648Z,156.00
2022-11-25T19:08:07.792Z,162.47
2022-11-25T19:10:38.170Z,147.50
2022-11-25T19:13:12.918Z,147.23
2022-11-25T19:15:41.083Z,150.17
2022-11-25T19:18:16.303Z,157.17
2022-11-25T19:20:44.365Z,159.90
2022-11-25T19:23:21.274Z,144.70
2022-11-25T19:25:49.832Z,149.37
2022-11-25T19:28:18.330Z,152.03
2022-11-25T19:30:49.649Z,154.57
2022-11-25T19:33:25.745Z,145.77
2022-11-25T19:35:53.894Z,156.20
2022-11-25T19:38:25.893Z,166.40
2022-11-25T19:40:55.740Z,168.43
2022-11-25T19:43:26.983Z,157.30
2022-11-25T19:45:56.555Z,162.50
2022-11-25T19:48:29.374Z,167.70
2022-11-25T19:50:59.684Z,160.03
2022-11-25T19:53:33.569Z,162.07
2022-11-25T19:56:04.431Z,175.83
2022-11-25T19:58:33.299Z,174.63
2022-11-25T20:01:04.893Z,174.17
2022-11-25T20:03:36.753Z,172.83
2022-11-25T20:06:11.111Z,162.40
2022-11-25T20:08:39.199Z,157.37
2022-11-25T20:11:07.575Z,155.90
2022-11-25T20:13:35.622Z,144.23
2022-11-25T20:16:10.013Z,138.33
2022-11-25T20:18:43.336Z,130.33
2022-11-25T20:21:20.397Z,115.30
2022-11-25T20:23:52.554Z,124.07
2022-11-25T20:26:30.677Z,119.13
2022-11-25T20:28:59.055Z,115.63
2022-11-25T20:31:30.486Z,113.67
2022-11-25T20:34:00.174Z,116.17
2022-11-25T20:36:32.608Z,110.93
2022-11-25T20:39:02.875Z,108.43
2022-11-25T20:41:31.493Z,109.97
2022-11-25T20:44:00.149Z,107.80
2022-11-25T20:46:30.150Z,114.87
2022-11-25T20:49:01.821Z,113.83
2022-11-25T20:51:30.282Z,115.33
2022-11-25T20:54:01.882Z,131.93
2022-11-25T20:56:30.591Z,158.50
2022-11-25T20:58:59.846Z,186.77
2022-11-25T21:01:29.005Z,200.13
2022-11-25T21:03:57.041Z,207.50
2022-11-25T21:06:29.983Z,202.03
2022-11-25T21:09:01.057Z,252.47
2022-11-25T21:11:32.991Z,193.00
2022-11-25T21:14:01.041Z,195.47
2022-11-25T21:16:29.266Z,184.90
2022-11-25T21:18:57.318Z,184.33
2022-11-25T21:21:32.478Z,173.87
2022-11-25T21:24:09.758Z,165.47
2022-11-25T21:26:38.427Z,168.60
2022-11-25T21:29:06.440Z,167.57
2022-11-25T21:31:34.547Z,164.23
2022-11-25T21:34:04.351Z,152.00
2022-11-25T21:36:33.915Z,149.00
2022-11-25T21:39:06.163Z,134.03
2022-11-25T21:41:34.368Z,136.07
2022-11-25T21:44:05.506Z,130.70
2022-11-25T21:46:35.476Z,123.13
2022-11-25T21:49:03.934Z,124.20
2022-11-25T21:51:33.533Z,122.37
2022-11-25T21:54:01.593Z,116.83
2022-11-25T21:56:34.490Z,111.97
2022-11-25T21:59:04.950Z,110.43
2022-11-25T22:01:33.198Z,105.80
2022-11-25T22:04:01.284Z,103.27
2022-11-25T22:06:31.845Z,104.77
2022-11-25T22:09:01.243Z,102.63
2022-11-25T22:11:32.786Z,109.00
2022-11-25T22:14:01.882Z,111.50
2022-11-25T22:16:34.292Z,104.23
2022-11-25T22:19:02.415Z,104.87
2022-11-25T22:21:30.408Z,101.07
2022-11-25T22:23:58.376Z,95.93
2022-11-25T22:26:31.692Z,101.07
2022-11-25T22:29:01.816Z,94.87
2022-11-25T22:31:30.152Z,92.37
2022-11-25T22:33:58.272Z,88.70
2022-11-25T22:36:32.638Z,86.77
2022-11-25T22:39:11.001Z,90.70
2022-11-25T22:41:40.624Z,86.27
2022-11-25T22:44:17.266Z,83.10
2022-11-25T22:46:45.763Z,85.97
2022-11-25T22:49:36.179Z,84.60
2022-11-25T22:52:04.579Z,85.63
2022-11-25T22:54:33.660Z,83.77
2022-11-25T22:57:03.112Z,85.93
2022-11-25T22:59:31.077Z,76.43
2022-11-25T23:01:59.222Z,78.53
2022-11-25T23:04:27.257Z,75.60
2022-11-25T23:06:56.855Z,80.10
2022-11-25T23:09:24.869Z,77.57
2022-11-25T23:11:52.855Z,74.73
2022-11-25T23:14:22.184Z,76.70
2022-11-25T23:16:50.291Z,74.37
2022-11-25T23:19:18.349Z,81.43
2022-11-25T23:21:48.311Z,92.80
2022-11-25T23:24:18.220Z,88.97
2022-11-25T23:26:46.400Z,86.57
2022-11-25T23:29:14.361Z,92.30
2022-11-25T23:31:44.147Z,90.60
2022-11-25T23:34:13.737Z,86.97
2022-11-25T23:36:45.642Z,85.73
2022-11-25T23:39:20.146Z,163.40
2022-11-25T23:41:50.733Z,192.77
2022-11-25T23:44:23.738Z,137.30
2022-11-25T23:46:54.355Z,144.00
2022-11-25T23:49:27.571Z,145.60
2022-11-25T23:52:07.345Z,148.17
2022-11-25T23:54:40.955Z,158.57
2022-11-25T23:57:15.029Z,144.93
2022-11-25T23:59:43.291Z,136.87
